地図

経路データ

SID SEASON NUMBER BASIN SUBBASIN NAME ISO_TIME NATURE LAT LON WMO_WIND WMO_PRES WMO_AGENCY TRACK_TYPE DIST2LAND LANDFALL IFLAG USA_AGENCY USA_ATCF_ID USA_LAT USA_LON USA_RECORD USA_STATUS USA_WIND USA_PRES USA_SSHS USA_R34_NE USA_R34_SE USA_R34_SW USA_R34_NW USA_R50_NE USA_R50_SE USA_R50_SW USA_R50_NW USA_R64_NE USA_R64_SE USA_R64_SW USA_R64_NW USA_POCI USA_ROCI USA_RMW USA_EYE TOKYO_LAT TOKYO_LON TOKYO_GRADE TOKYO_WIND TOKYO_PRES TOKYO_R50_DIR TOKYO_R50_LONG TOKYO_R50_SHORT TOKYO_R30_DIR TOKYO_R30_LONG TOKYO_R30_SHORT TOKYO_LAND CMA_LAT CMA_LON CMA_CAT CMA_WIND CMA_PRES HKO_LAT HKO_LON HKO_CAT HKO_WIND HKO_PRES NEWDELHI_LAT NEWDELHI_LON NEWDELHI_GRADE NEWDELHI_WIND NEWDELHI_PRES NEWDELHI_CI NEWDELHI_DP NEWDELHI_POCI REUNION_LAT REUNION_LON REUNION_TYPE REUNION_WIND REUNION_PRES REUNION_TNUM REUNION_CI REUNION_RMW REUNION_R34_NE REUNION_R34_SE REUNION_R34_SW REUNION_R34_NW REUNION_R50_NE REUNION_R50_SE REUNION_R50_SW REUNION_R50_NW REUNION_R64_NE REUNION_R64_SE REUNION_R64_SW REUNION_R64_NW BOM_LAT BOM_LON BOM_TYPE BOM_WIND BOM_PRES BOM_TNUM BOM_CI BOM_RMW BOM_R34_NE BOM_R34_SE BOM_R34_SW BOM_R34_NW BOM_R50_NE BOM_R50_SE BOM_R50_SW BOM_R50_NW BOM_R64_NE BOM_R64_SE BOM_R64_SW BOM_R64_NW BOM_ROCI BOM_POCI BOM_EYE BOM_POS_METHOD BOM_PRES_METHOD NADI_LAT NADI_LON NADI_CAT NADI_WIND NADI_PRES WELLINGTON_LAT WELLINGTON_LON WELLINGTON_WIND WELLINGTON_PRES DS824_LAT DS824_LON DS824_STAGE DS824_WIND DS824_PRES TD9636_LAT TD9636_LON TD9636_STAGE TD9636_WIND TD9636_PRES TD9635_LAT TD9635_LON TD9635_WIND TD9635_PRES TD9635_ROCI NEUMANN_LAT NEUMANN_LON NEUMANN_CLASS NEUMANN_WIND NEUMANN_PRES MLC_LAT MLC_LON MLC_CLASS MLC_WIND MLC_PRES USA_GUST BOM_GUST BOM_GUST_PER REUNION_GUST REUNION_GUST_PER USA_SEAHGT USA_SEARAD_NE USA_SEARAD_SE USA_SEARAD_SW USA_SEARAD_NW STORM_SPEED STORM_DIR
1915033N17130 1915 1 WP MM NOT_NAMED 1915-02-02 09:00:00 NR 17.2000 129.800 main 686 641 __________O___ -1 17.2000 129.800 2 26 303
1915033N17130 1915 1 WP MM NOT_NAMED 1915-02-02 12:00:00 NR 17.9104 128.644 main 633 559 __________P___ -1 17.9104 128.644 2 26 305
1915033N17130 1915 1 WP MM NOT_NAMED 1915-02-02 15:00:00 NR 18.7131 127.558 main 559 481 __________P___ -1 18.7131 127.558 2 26 313
1915033N17130 1915 1 WP MM NOT_NAMED 1915-02-02 18:00:00 NR 19.7086 126.618 main 474 460 __________P___ -1 19.7086 126.618 2 28 326
1915033N17130 1915 1 WP MM NOT_NAMED 1915-02-02 21:00:00 NR 21.0000 125.900 main 475 425 __________O___ -1 21.0000 125.900 2 31 340
1915033N17130 1915 1 WP MM NOT_NAMED 1915-02-03 00:00:00 NR 22.6419 125.478 main 423 349 __________P___ -1 22.6419 125.478 2 35 353
1915033N17130 1915 1 WP MM NOT_NAMED 1915-02-03 03:00:00 NR 24.4884 125.411 main 347 342 __________P___ -1 24.4884 125.411 2 37 4
1915033N17130 1915 1 WP MM NOT_NAMED 1915-02-03 06:00:00 NR 26.3414 125.762 main 407 407 __________P___ -1 26.3414 125.762 2 37 17
1915033N17130 1915 1 WP MM NOT_NAMED 1915-02-03 09:00:00 NR 28.0000 126.600 main 468 321 __________O___ -1 28.0000 126.600 2 34 35
1915033N17130 1915 1 WP MM NOT_NAMED 1915-02-03 12:00:00 NR 29.1468 127.953 main 315 142 __________P___ -1 29.1468 127.953 2 35 53
1915033N17130 1915 1 WP MM NOT_NAMED 1915-02-03 15:00:00 NR 30.0653 129.784 main 128 56 __________P___ -1 30.0653 129.784 2 38 63
1915033N17130 1915 1 WP MM NOT_NAMED 1915-02-03 18:00:00 NR 30.8738 131.898 main 73 73 __________P___ -1 30.8738 131.898 2 40 66
1915033N17130 1915 1 WP MM NOT_NAMED 1915-02-03 21:00:00 NR 31.7000 134.100 main 152 91 __________O___ -1 31.7000 134.100 2 41 64
1915033N17130 1915 1 WP MM NOT_NAMED 1915-02-04 00:00:00 NR 32.6646 136.237 main 86 86 __________P___ -1 32.6646 136.237 2 41 61
1915033N17130 1915 1 WP MM NOT_NAMED 1915-02-04 03:00:00 NR 33.6805 138.418 main 101 42 __________P___ -1 33.6805 138.418 2 42 59
1915033N17130 1915 1 WP MM NOT_NAMED 1915-02-04 06:00:00 NR 34.7792 140.541 main 45 45 __________P___ -1 34.7792 140.541 2 41 55
1915033N17130 1915 1 WP MM NOT_NAMED 1915-02-04 09:00:00 NR 36.0000 142.500 main 147 147 __________O___ -1 36.0000 142.500 2 39 49
1915033N17130 1915 1 WP MM NOT_NAMED 1915-02-04 12:00:00 NR 37.3751 144.219 main 256 256 __________P___ -1 37.3751 144.219 2 39 42
1915033N17130 1915 1 WP MM NOT_NAMED 1915-02-04 15:00:00 NR 38.8808 145.753 main 324 322 __________P___ -1 38.8808 145.753 2 39 37
1915033N17130 1915 1 WP MM NOT_NAMED 1915-02-04 18:00:00 NR 40.4729 147.185 main 331 276 __________P___ -1 40.4729 147.185 2 39 34
1915033N17130 1915 1 WP MM NOT_NAMED 1915-02-04 21:00:00 NR 42.1000 148.600 main 278 __________O___ -1 42.1000 148.600 2 39 33

デジタル台風データ・検索

IBTrACS Databaseについて

本データベースは、米国NOAAが公開する1842年以降の世界の熱帯低気圧のベストトラックデータアーカイブInternational Best Track Archive for Climate Stewardship (IBTrACS)を、ウェブで閲覧しやすい形式に変換したものです。

最終更新日:2021-12-01